sensor_id;sensor_type;location;lat;lon;timestamp;pressure;altitude;pressure_sealevel;temperature;humidity
49801;BME280;35698;50.232;30.540;2022-09-21T00:00:09;99841.69;;;32.78;32.18
49801;BME280;35698;50.232;30.540;2022-09-21T00:01:21;99830.02;;;32.71;32.36
49801;BME280;35698;50.232;30.540;2022-09-21T00:07:00;99841.92;;;32.65;32.76
49801;BME280;35698;50.232;30.540;2022-09-21T00:08:12;99829.08;;;32.77;32.88
49801;BME280;35698;50.232;30.540;2022-09-21T00:09:16;99842.54;;;32.20;40.25
49801;BME280;35698;50.232;30.540;2022-09-21T00:10:27;99835.88;;;31.69;36.26
49801;BME280;35698;50.232;30.540;2022-09-21T00:11:32;99835.70;;;31.52;34.30
49801;BME280;35698;50.232;30.540;2022-09-21T00:12:36;99820.62;;;31.50;33.84
49801;BME280;35698;50.232;30.540;2022-09-21T00:13:40;99829.97;;;31.42;33.10
49801;BME280;35698;50.232;30.540;2022-09-21T00:14:52;99826.55;;;31.47;32.90
49801;BME280;35698;50.232;30.540;2022-09-21T00:15:56;99823.01;;;31.58;32.00
49801;BME280;35698;50.232;30.540;2022-09-21T00:17:00;99820.38;;;31.51;31.88
49801;BME280;35698;50.232;30.540;2022-09-21T00:18:03;99824.28;;;31.44;31.24
49801;BME280;35698;50.232;30.540;2022-09-21T00:19:07;99824.58;;;31.24;30.71
49801;BME280;35698;50.232;30.540;2022-09-21T00:20:19;99825.69;;;31.05;31.32
49801;BME280;35698;50.232;30.540;2022-09-21T00:21:25;99827.27;;;31.12;32.29
49801;BME280;35698;50.232;30.540;2022-09-21T00:22:36;99822.59;;;31.01;31.92
49801;BME280;35698;50.232;30.540;2022-09-21T00:23:41;99831.70;;;30.95;31.22
49801;BME280;35698;50.232;30.540;2022-09-21T00:24:53;99829.20;;;31.23;31.79
49801;BME280;35698;50.232;30.540;2022-09-21T00:26:10;99830.77;;;31.31;32.06
49801;BME280;35698;50.232;30.540;2022-09-21T00:27:21;99833.50;;;31.31;32.46
49801;BME280;35698;50.232;30.540;2022-09-21T00:28:25;99824.70;;;31.17;32.34
49801;BME280;35698;50.232;30.540;2022-09-21T00:29:28;99828.31;;;31.41;31.85
49801;BME280;35698;50.232;30.540;2022-09-21T00:30:40;99824.67;;;31.59;31.82
49801;BME280;35698;50.232;30.540;2022-09-21T00:31:43;99823.08;;;31.40;32.31
49801;BME280;35698;50.232;30.540;2022-09-21T00:32:47;99836.00;;;31.33;32.05
49801;BME280;35698;50.232;30.540;2022-09-21T00:33:51;99829.94;;;31.30;32.39
49801;BME280;35698;50.232;30.540;2022-09-21T00:35:04;99831.88;;;31.42;31.82
49801;BME280;35698;50.232;30.540;2022-09-21T00:36:11;99829.93;;;31.19;31.93
49801;BME280;35698;50.232;30.540;2022-09-21T00:37:23;99832.20;;;31.34;31.76
49801;BME280;35698;50.232;30.540;2022-09-21T00:38:27;99831.05;;;31.11;31.92
49801;BME280;35698;50.232;30.540;2022-09-21T00:39:38;99829.52;;;30.85;30.67
49801;BME280;35698;50.232;30.540;2022-09-21T00:40:42;99830.48;;;30.54;30.67
49801;BME280;35698;50.232;30.540;2022-09-21T00:41:45;99827.64;;;30.68;32.39
49801;BME280;35698;50.232;30.540;2022-09-21T00:43:16;99823.37;;;30.90;32.57
49801;BME280;35698;50.232;30.540;2022-09-21T00:44:27;99822.94;;;30.75;32.61
49801;BME280;35698;50.232;30.540;2022-09-21T00:45:37;99829.45;;;30.74;32.69
49801;BME280;35698;50.232;30.540;2022-09-21T00:46:41;99830.97;;;30.70;33.07
49801;BME280;35698;50.232;30.540;2022-09-21T00:47:48;99830.45;;;31.09;32.37
49801;BME280;35698;50.232;30.540;2022-09-21T00:49:00;99831.23;;;30.98;32.75
49801;BME280;35698;50.232;30.540;2022-09-21T00:50:07;99829.14;;;30.82;32.83
49801;BME280;35698;50.232;30.540;2022-09-21T00:55:57;99830.36;;;30.31;32.40
49801;BME280;35698;50.232;30.540;2022-09-21T00:57:12;99826.27;;;30.77;33.60
49801;BME280;35698;50.232;30.540;2022-09-21T00:58:19;99822.03;;;30.62;32.44
49801;BME280;35698;50.232;30.540;2022-09-21T00:59:34;99821.66;;;30.59;32.84
49801;BME280;35698;50.232;30.540;2022-09-21T01:00:39;99817.08;;;30.34;33.36
49801;BME280;35698;50.232;30.540;2022-09-21T01:01:42;99826.01;;;30.05;32.08
49801;BME280;35698;50.232;30.540;2022-09-21T01:02:46;99826.04;;;29.98;32.36
49801;BME280;35698;50.232;30.540;2022-09-21T01:03:59;99830.65;;;29.98;33.51
49801;BME280;35698;50.232;30.540;2022-09-21T01:05:05;99823.71;;;29.77;33.90
49801;BME280;35698;50.232;30.540;2022-09-21T01:06:20;99829.88;;;29.91;33.60
49801;BME280;35698;50.232;30.540;2022-09-21T01:07:26;99829.48;;;29.87;33.78
49801;BME280;35698;50.232;30.540;2022-09-21T01:08:40;99824.21;;;30.17;33.73
49801;BME280;35698;50.232;30.540;2022-09-21T01:09:47;99828.27;;;29.83;33.56
49801;BME280;35698;50.232;30.540;2022-09-21T01:16:33;99822.70;;;30.21;32.46
49801;BME280;35698;50.232;30.540;2022-09-21T01:17:51;99832.68;;;30.46;32.96
49801;BME280;35698;50.232;30.540;2022-09-21T01:22:13;99822.39;;;30.11;33.01
49801;BME280;35698;50.232;30.540;2022-09-21T01:30:19;99818.70;;;30.24;33.01
49801;BME280;35698;50.232;30.540;2022-09-21T01:34:04;99815.73;;;30.44;33.42
49801;BME280;35698;50.232;30.540;2022-09-21T01:35:20;99821.25;;;30.37;33.17
49801;BME280;35698;50.232;30.540;2022-09-21T01:36:33;99819.44;;;30.49;33.22
49801;BME280;35698;50.232;30.540;2022-09-21T01:39:02;99827.59;;;29.63;31.32
49801;BME280;35698;50.232;30.540;2022-09-21T01:40:24;99829.79;;;30.04;31.76
49801;BME280;35698;50.232;30.540;2022-09-21T01:41:29;99829.05;;;29.90;32.94
49801;BME280;35698;50.232;30.540;2022-09-21T01:42:38;99824.44;;;29.66;33.22
49801;BME280;35698;50.232;30.540;2022-09-21T01:43:52;99827.93;;;29.98;33.62
49801;BME280;35698;50.232;30.540;2022-09-21T01:44:59;99825.43;;;29.96;34.47
49801;BME280;35698;50.232;30.540;2022-09-21T01:46:16;99830.84;;;30.03;34.54
49801;BME280;35698;50.232;30.540;2022-09-21T01:47:22;99833.06;;;30.13;34.15
49801;BME280;35698;50.232;30.540;2022-09-21T01:48:32;99826.71;;;30.19;33.43
49801;BME280;35698;50.232;30.540;2022-09-21T01:49:48;99832.48;;;30.29;32.87
49801;BME280;35698;50.232;30.540;2022-09-21T01:50:57;99827.16;;;29.91;33.45
49801;BME280;35698;50.232;30.540;2022-09-21T01:53:38;99834.10;;;29.87;33.71
49801;BME280;35698;50.232;30.540;2022-09-21T01:54:49;99840.71;;;29.97;32.84
49801;BME280;35698;50.232;30.540;2022-09-21T01:56:26;99824.21;;;30.17;33.37
49801;BME280;35698;50.232;30.540;2022-09-21T02:00:23;99832.16;;;30.19;32.62
49801;BME280;35698;50.232;30.540;2022-09-21T02:01:28;99833.37;;;30.23;33.83
49801;BME280;35698;50.232;30.540;2022-09-21T02:02:43;99829.82;;;30.22;32.63
49801;BME280;35698;50.232;30.540;2022-09-21T02:03:58;99828.37;;;30.56;33.35
49801;BME280;35698;50.232;30.540;2022-09-21T02:05:12;99832.86;;;30.32;33.34
49801;BME280;35698;50.232;30.540;2022-09-21T02:06:18;99834.66;;;30.20;33.44
49801;BME280;35698;50.232;30.540;2022-09-21T02:07:21;99836.39;;;30.15;33.92
49801;BME280;35698;50.232;30.540;2022-09-21T02:08:29;99827.93;;;29.98;32.78
49801;BME280;35698;50.232;30.540;2022-09-21T02:09:42;99832.84;;;30.14;33.93
49801;BME280;35698;50.232;30.540;2022-09-21T02:10:50;99833.37;;;29.98;33.74
49801;BME280;35698;50.232;30.540;2022-09-21T02:11:54;99834.72;;;29.89;33.59
49801;BME280;35698;50.232;30.540;2022-09-21T02:13:01;99834.72;;;29.89;33.74
49801;BME280;35698;50.232;30.540;2022-09-21T02:15:23;99836.16;;;29.66;33.44
49801;BME280;35698;50.232;30.540;2022-09-21T02:16:35;99843.10;;;29.87;34.07
49801;BME280;35698;50.232;30.540;2022-09-21T02:19:13;99846.55;;;29.76;33.64
49801;BME280;35698;50.232;30.540;2022-09-21T02:20:31;99842.50;;;29.85;33.54
49801;BME280;35698;50.232;30.540;2022-09-21T02:21:44;99836.16;;;29.66;34.21
49801;BME280;35698;50.232;30.540;2022-09-21T02:23:03;99843.60;;;29.78;34.00
49801;BME280;35698;50.232;30.540;2022-09-21T02:24:20;99839.59;;;29.55;34.66
49801;BME280;35698;50.232;30.540;2022-09-21T02:25:49;99840.94;;;29.46;34.25
49801;BME280;35698;50.232;30.540;2022-09-21T02:29:46;99847.80;;;30.05;34.06
49801;BME280;35698;50.232;30.540;2022-09-21T02:33:59;99846.91;;;30.11;33.63
49801;BME280;35698;50.232;30.540;2022-09-21T02:35:10;99837.95;;;30.04;33.83
49801;BME280;35698;50.232;30.540;2022-09-21T02:36:33;99844.79;;;30.13;33.65
49801;BME280;35698;50.232;30.540;2022-09-21T02:37:41;99851.44;;;29.67;32.48
49801;BME280;35698;50.232;30.540;2022-09-21T02:40:28;99841.66;;;29.85;32.13
49801;BME280;35698;50.232;30.540;2022-09-21T02:41:45;99845.10;;;29.74;32.74
49801;BME280;35698;50.232;30.540;2022-09-21T02:43:09;99847.05;;;29.91;33.06
49801;BME280;35698;50.232;30.540;2022-09-21T02:45:30;99843.99;;;29.81;32.99
49801;BME280;35698;50.232;30.540;2022-09-21T02:46:44;99845.10;;;29.98;33.61
49801;BME280;35698;50.232;30.540;2022-09-21T02:48:14;99833.31;;;30.29;33.14
49801;BME280;35698;50.232;30.540;2022-09-21T02:49:19;99845.45;;;30.09;32.36
49801;BME280;35698;50.232;30.540;2022-09-21T02:50:34;99846.52;;;30.08;32.29
49801;BME280;35698;50.232;30.540;2022-09-21T02:51:50;99842.94;;;29.82;30.89
49801;BME280;35698;50.232;30.540;2022-09-21T02:52:55;99842.09;;;29.57;32.17
49801;BME280;35698;50.232;30.540;2022-09-21T02:54:10;99848.59;;;29.56;32.85
49801;BME280;35698;50.232;30.540;2022-09-21T02:55:16;99849.95;;;29.40;33.80
49801;BME280;35698;50.232;30.540;2022-09-21T02:56:22;99841.65;;;29.60;34.20
49801;BME280;35698;50.232;30.540;2022-09-21T02:57:27;99847.99;;;29.79;32.85
49801;BME280;35698;50.232;30.540;2022-09-21T02:59:50;99842.67;;;30.15;32.10
49801;BME280;35698;50.232;30.540;2022-09-21T03:00:55;99847.05;;;29.91;33.16
49801;BME280;35698;50.232;30.540;2022-09-21T03:02:00;99846.39;;;30.21;33.50
49801;BME280;35698;50.232;30.540;2022-09-21T03:03:21;99843.38;;;30.29;33.58
49801;BME280;35698;50.232;30.540;2022-09-21T03:04:25;99850.84;;;30.15;33.52
49801;BME280;35698;50.232;30.540;2022-09-21T03:05:37;99851.67;;;30.34;33.84
49801;BME280;35698;50.232;30.540;2022-09-21T03:06:40;99853.08;;;30.00;31.38
49801;BME280;35698;50.232;30.540;2022-09-21T03:07:52;99850.27;;;30.31;32.49
49801;BME280;35698;50.232;30.540;2022-09-21T03:08:57;99854.55;;;30.39;33.28
49801;BME280;35698;50.232;30.540;2022-09-21T03:10:09;99856.87;;;30.60;32.88
49801;BME280;35698;50.232;30.540;2022-09-21T03:11:16;99858.27;;;30.45;33.32
49801;BME280;35698;50.232;30.540;2022-09-21T03:12:22;99864.94;;;30.49;32.80
49801;BME280;35698;50.232;30.540;2022-09-21T03:13:26;99865.02;;;30.24;32.86
49801;BME280;35698;50.232;30.540;2022-09-21T03:14:38;99858.89;;;30.28;33.09
49801;BME280;35698;50.232;30.540;2022-09-21T03:15:42;99862.25;;;30.06;33.50
49801;BME280;35698;50.232;30.540;2022-09-21T03:16:55;99868.34;;;30.26;33.19
49801;BME280;35698;50.232;30.540;2022-09-21T03:17:58;99867.73;;;30.24;32.87
49801;BME280;35698;50.232;30.540;2022-09-21T03:19:03;99867.73;;;30.24;32.61
49801;BME280;35698;50.232;30.540;2022-09-21T03:20:15;99862.00;;;30.32;32.03
49801;BME280;35698;50.232;30.540;2022-09-21T03:21:20;99864.33;;;29.79;32.77
49801;BME280;35698;50.232;30.540;2022-09-21T03:22:24;99869.77;;;29.79;33.00
49801;BME280;35698;50.232;30.540;2022-09-21T03:23:28;99868.98;;;30.03;33.54
49801;BME280;35698;50.232;30.540;2022-09-21T03:24:32;99862.94;;;29.94;32.88
49801;BME280;35698;50.232;30.540;2022-09-21T03:25:47;99872.86;;;30.14;33.06
49801;BME280;35698;50.232;30.540;2022-09-21T03:26:59;99872.59;;;29.65;32.51
49801;BME280;35698;50.232;30.540;2022-09-21T03:28:03;99876.56;;;29.94;33.21
49801;BME280;35698;50.232;30.540;2022-09-21T03:29:16;99871.30;;;30.24;33.19
49801;BME280;35698;50.232;30.540;2022-09-21T03:30:20;99878.31;;;30.14;32.87
49801;BME280;35698;50.232;30.540;2022-09-21T03:31:34;99871.30;;;30.24;31.93
49801;BME280;35698;50.232;30.540;2022-09-21T03:32:38;99865.75;;;30.13;33.33
49801;BME280;35698;50.232;30.540;2022-09-21T03:33:41;99872.03;;;30.13;32.99
49801;BME280;35698;50.232;30.540;2022-09-21T03:34:53;99869.69;;;30.17;33.06
49801;BME280;35698;50.232;30.540;2022-09-21T03:36:00;99873.25;;;30.17;33.14
49801;BME280;35698;50.232;30.540;2022-09-21T03:37:05;99875.52;;;30.20;33.02
49801;BME280;35698;50.232;30.540;2022-09-21T03:38:09;99867.35;;;30.20;32.62
49801;BME280;35698;50.232;30.540;2022-09-21T03:39:13;99870.36;;;30.12;32.86
49801;BME280;35698;50.232;30.540;2022-09-21T03:40:24;99875.08;;;30.42;33.34
49801;BME280;35698;50.232;30.540;2022-09-21T03:41:28;99869.02;;;30.40;33.42
49801;BME280;35698;50.232;30.540;2022-09-21T03:42:32;99864.84;;;30.37;33.54
49801;BME280;35698;50.232;30.540;2022-09-21T03:43:35;99873.02;;;30.19;31.62
49801;BME280;35698;50.232;30.540;2022-09-21T03:44:39;99867.03;;;30.10;30.94
49801;BME280;35698;50.232;30.540;2022-09-21T03:45:51;99870.58;;;30.11;32.77
49801;BME280;35698;50.232;30.540;2022-09-21T03:46:55;99861.05;;;29.70;32.13
49801;BME280;35698;50.232;30.540;2022-09-21T03:48:00;99876.20;;;29.59;31.76
49801;BME280;35698;50.232;30.540;2022-09-21T03:49:12;99870.61;;;29.79;31.81
49801;BME280;35698;50.232;30.540;2022-09-21T03:50:17;99868.86;;;29.28;32.55
49801;BME280;35698;50.232;30.540;2022-09-21T03:51:29;99877.59;;;29.68;33.43
49801;BME280;35698;50.232;30.540;2022-09-21T03:52:33;99876.27;;;29.78;32.73
49801;BME280;35698;50.232;30.540;2022-09-21T03:53:45;99870.72;;;29.91;33.25
49801;BME280;35698;50.232;30.540;2022-09-21T03:54:49;99874.72;;;29.88;32.81
49801;BME280;35698;50.232;30.540;2022-09-21T03:55:52;99873.50;;;29.84;33.26
49801;BME280;35698;50.232;30.540;2022-09-21T03:57:04;99871.61;;;29.85;32.33
49801;BME280;35698;50.232;30.540;2022-09-21T03:58:08;99871.22;;;29.81;32.88
49801;BME280;35698;50.232;30.540;2022-09-21T03:59:12;99872.81;;;29.64;33.03
49801;BME280;35698;50.232;30.540;2022-09-21T04:00:24;99881.02;;;29.57;32.65
49801;BME280;35698;50.232;30.540;2022-09-21T04:01:29;99881.51;;;29.48;32.05
49801;BME280;35698;50.232;30.540;2022-09-21T04:02:33;99875.66;;;29.76;33.01
49801;BME280;35698;50.232;30.540;2022-09-21T04:03:46;99880.12;;;29.95;33.33
49801;BME280;35698;50.232;30.540;2022-09-21T04:04:49;99879.98;;;29.20;30.80
49801;BME280;35698;50.232;30.540;2022-09-21T04:06:09;99886.45;;;29.89;33.08
49801;BME280;35698;50.232;30.540;2022-09-21T04:07:14;99887.89;;;29.91;33.55
49801;BME280;35698;50.232;30.540;2022-09-21T04:08:19;99882.65;;;29.65;33.09
49801;BME280;35698;50.232;30.540;2022-09-21T04:09:31;99886.55;;;29.76;33.12
49801;BME280;35698;50.232;30.540;2022-09-21T04:10:35;99890.38;;;29.68;33.04
49801;BME280;35698;50.232;30.540;2022-09-21T04:11:48;99888.40;;;29.50;32.78
49801;BME280;35698;50.232;30.540;2022-09-21T04:14:15;99891.12;;;29.12;32.71
49801;BME280;35698;50.232;30.540;2022-09-21T04:15:19;99888.33;;;29.25;33.53
49801;BME280;35698;50.232;30.540;2022-09-21T04:16:23;99895.30;;;29.15;33.18
49801;BME280;35698;50.232;30.540;2022-09-21T04:17:35;99888.92;;;28.76;33.48
49801;BME280;35698;50.232;30.540;2022-09-21T04:18:40;99894.17;;;28.71;32.53
49801;BME280;35698;50.232;30.540;2022-09-21T04:19:51;99888.64;;;29.04;33.20
49801;BME280;35698;50.232;30.540;2022-09-21T04:20:55;99894.56;;;28.88;32.76
49801;BME280;35698;50.232;30.540;2022-09-21T04:23:14;99892.25;;;29.36;32.79
49801;BME280;35698;50.232;30.540;2022-09-21T04:24:21;99889.71;;;29.41;33.78
49801;BME280;35698;50.232;30.540;2022-09-21T04:25:34;99893.14;;;29.61;32.67
49801;BME280;35698;50.232;30.540;2022-09-21T04:26:40;99884.27;;;29.41;33.84
49801;BME280;35698;50.232;30.540;2022-09-21T04:27:45;99884.70;;;29.45;33.70
49801;BME280;35698;50.232;30.540;2022-09-21T04:28:58;99890.86;;;29.58;32.72
49801;BME280;35698;50.232;30.540;2022-09-21T04:30:05;99889.98;;;29.64;34.04
49801;BME280;35698;50.232;30.540;2022-09-21T04:31:16;99891.02;;;29.95;34.04
49801;BME280;35698;50.232;30.540;2022-09-21T04:32:20;99896.84;;;29.98;34.29
49801;BME280;35698;50.232;30.540;2022-09-21T04:33:26;99896.73;;;29.87;32.67
49801;BME280;35698;50.232;30.540;2022-09-21T04:34:32;99899.23;;;29.88;32.32
49801;BME280;35698;50.232;30.540;2022-09-21T04:35:45;99902.66;;;30.09;32.96
49801;BME280;35698;50.232;30.540;2022-09-21T04:36:51;99901.31;;;29.61;32.00
49801;BME280;35698;50.232;30.540;2022-09-21T04:37:56;99907.63;;;29.87;33.37
49801;BME280;35698;50.232;30.540;2022-09-21T04:39:04;99902.84;;;29.82;32.75
49801;BME280;35698;50.232;30.540;2022-09-21T04:40:16;99901.61;;;29.78;32.41
49801;BME280;35698;50.232;30.540;2022-09-21T04:41:20;99898.23;;;29.51;32.75
49801;BME280;35698;50.232;30.540;2022-09-21T04:42:35;99900.56;;;29.79;33.15
49801;BME280;35698;50.232;30.540;2022-09-21T04:43:43;99904.69;;;29.19;31.29
49801;BME280;35698;50.232;30.540;2022-09-21T04:44:56;99899.83;;;29.27;32.08
49801;BME280;35698;50.232;30.540;2022-09-21T04:46:09;99904.91;;;29.17;32.13
49801;BME280;35698;50.232;30.540;2022-09-21T04:47:12;99903.97;;;29.43;32.53
49801;BME280;35698;50.232;30.540;2022-09-21T04:48:17;99905.96;;;29.54;32.72
49801;BME280;35698;50.232;30.540;2022-09-21T04:49:29;99909.19;;;29.45;32.29
49801;BME280;35698;50.232;30.540;2022-09-21T04:50:33;99907.84;;;29.16;32.03
49801;BME280;35698;50.232;30.540;2022-09-21T04:51:45;99901.61;;;29.47;32.34
49801;BME280;35698;50.232;30.540;2022-09-21T04:52:48;99902.52;;;29.34;32.45
49801;BME280;35698;50.232;30.540;2022-09-21T04:53:52;99905.02;;;29.42;32.59
49801;BME280;35698;50.232;30.540;2022-09-21T04:55:05;99904.91;;;29.55;31.81
49801;BME280;35698;50.232;30.540;2022-09-21T04:56:12;99907.81;;;29.22;30.73
49801;BME280;35698;50.232;30.540;2022-09-21T04:57:16;99903.97;;;29.36;32.07
49801;BME280;35698;50.232;30.540;2022-09-21T04:58:21;99905.48;;;29.26;31.71
49801;BME280;35698;50.232;30.540;2022-09-21T04:59:34;99897.47;;;29.44;32.52
49801;BME280;35698;50.232;30.540;2022-09-21T05:00:39;99898.67;;;29.48;32.38
49801;BME280;35698;50.232;30.540;2022-09-21T05:01:52;99906.88;;;29.73;32.65
49801;BME280;35698;50.232;30.540;2022-09-21T05:02:56;99901.27;;;29.68;32.45
49801;BME280;35698;50.232;30.540;2022-09-21T05:04:00;99896.92;;;29.60;31.81
49801;BME280;35698;50.232;30.540;2022-09-21T05:05:12;99900.34;;;29.81;32.58
49801;BME280;35698;50.232;30.540;2022-09-21T05:06:16;99898.89;;;29.78;32.41
49801;BME280;35698;50.232;30.540;2022-09-21T05:07:19;99898.14;;;29.64;31.57
49801;BME280;35698;50.232;30.540;2022-09-21T05:08:26;99894.85;;;29.56;31.18
49801;BME280;35698;50.232;30.540;2022-09-21T05:09:38;99899.55;;;28.97;31.74
49801;BME280;35698;50.232;30.540;2022-09-21T05:10:42;99893.13;;;29.30;32.14
49801;BME280;35698;50.232;30.540;2022-09-21T05:11:54;99891.73;;;29.14;32.19
49801;BME280;35698;50.232;30.540;2022-09-21T05:12:58;99891.77;;;29.08;31.03
49801;BME280;35698;50.232;30.540;2022-09-21T05:15:24;99897.36;;;29.19;31.11
49801;BME280;35698;50.232;30.540;2022-09-21T05:16:28;99905.67;;;29.31;31.84
49801;BME280;35698;50.232;30.540;2022-09-21T05:17:40;99896.59;;;29.06;30.58
49801;BME280;35698;50.232;30.540;2022-09-21T05:18:44;99906.17;;;29.15;31.74
49801;BME280;35698;50.232;30.540;2022-09-21T05:19:58;99897.85;;;29.03;32.06
49801;BME280;35698;50.232;30.540;2022-09-21T05:21:04;99908.24;;;29.19;31.50
49801;BME280;35698;50.232;30.540;2022-09-21T05:22:11;99913.06;;;29.17;30.79
49801;BME280;35698;50.232;30.540;2022-09-21T05:23:15;99906.81;;;29.10;31.52
49801;BME280;35698;50.232;30.540;2022-09-21T05:24:33;99908.98;;;29.40;31.68
49801;BME280;35698;50.232;30.540;2022-09-21T05:25:37;99907.73;;;29.42;32.12
49801;BME280;35698;50.232;30.540;2022-09-21T05:26:49;99918.19;;;29.39;31.40
49801;BME280;35698;50.232;30.540;2022-09-21T05:27:52;99913.09;;;29.11;31.97
49801;BME280;35698;50.232;30.540;2022-09-21T05:29:07;99912.75;;;29.45;31.82
49801;BME280;35698;50.232;30.540;2022-09-21T05:30:12;99915.83;;;29.49;31.82
49801;BME280;35698;50.232;30.540;2022-09-21T05:38:37;99920.05;;;29.76;31.38
49801;BME280;35698;50.232;30.540;2022-09-21T05:39:55;99922.63;;;29.96;32.40
49801;BME280;35698;50.232;30.540;2022-09-21T05:40:59;99923.78;;;29.82;32.21
49801;BME280;35698;50.232;30.540;2022-09-21T05:42:04;99930.19;;;29.94;32.20
49801;BME280;35698;50.232;30.540;2022-09-21T05:43:17;99933.67;;;30.08;31.62
49801;BME280;35698;50.232;30.540;2022-09-21T05:44:21;99928.91;;;29.96;31.57
49801;BME280;35698;50.232;30.540;2022-09-21T05:45:39;99927.13;;;30.15;31.96
49801;BME280;35698;50.232;30.540;2022-09-21T05:48:24;99928.30;;;29.63;30.28
49801;BME280;35698;50.232;30.540;2022-09-21T05:49:55;99928.88;;;29.72;30.70
49801;BME280;35698;50.232;30.540;2022-09-21T05:55:37;99919.84;;;28.95;31.42
49801;BME280;35698;50.232;30.540;2022-09-21T05:57:03;99928.00;;;28.95;31.85
49801;BME280;35698;50.232;30.540;2022-09-21T06:01:39;99932.63;;;29.46;31.34
49801;BME280;35698;50.232;30.540;2022-09-21T06:04:30;99934.98;;;29.29;30.13
49801;BME280;35698;50.232;30.540;2022-09-21T06:05:35;99924.06;;;29.35;31.10
49801;BME280;35698;50.232;30.540;2022-09-21T06:06:38;99935.06;;;29.09;30.46
49801;BME280;35698;50.232;30.540;2022-09-21T06:07:56;99936.73;;;29.10;30.51
49801;BME280;35698;50.232;30.540;2022-09-21T06:09:00;99936.68;;;29.23;31.96
49801;BME280;35698;50.232;30.540;2022-09-21T06:10:16;99937.57;;;29.11;31.70
49801;BME280;35698;50.232;30.540;2022-09-21T06:11:20;99938.59;;;29.16;32.07
49801;BME280;35698;50.232;30.540;2022-09-21T06:12:33;99939.55;;;29.42;32.07
49801;BME280;35698;50.232;30.540;2022-09-21T06:13:37;99935.34;;;29.46;31.98
49801;BME280;35698;50.232;30.540;2022-09-21T06:14:50;99940.69;;;29.59;30.79
49801;BME280;35698;50.232;30.540;2022-09-21T06:15:54;99936.25;;;29.64;31.96
49801;BME280;35698;50.232;30.540;2022-09-21T06:17:06;99941.22;;;29.74;30.52
49801;BME280;35698;50.232;30.540;2022-09-21T06:18:11;99936.87;;;29.66;31.56
49801;BME280;35698;50.232;30.540;2022-09-21T06:19:42;99937.85;;;29.41;29.93
49801;BME280;35698;50.232;30.540;2022-09-21T06:20:59;99937.96;;;29.59;30.64
49801;BME280;35698;50.232;30.540;2022-09-21T06:22:10;99939.37;;;29.68;30.85
49801;BME280;35698;50.232;30.540;2022-09-21T06:23:14;99942.21;;;29.48;30.31
49801;BME280;35698;50.232;30.540;2022-09-21T06:24:27;99942.23;;;29.80;31.40
49801;BME280;35698;50.232;30.540;2022-09-21T06:25:31;99939.20;;;29.94;31.82
49801;BME280;35698;50.232;30.540;2022-09-21T06:26:43;99940.30;;;30.18;30.41
49801;BME280;35698;50.232;30.540;2022-09-21T06:27:48;99939.20;;;29.63;31.15
49801;BME280;35698;50.232;30.540;2022-09-21T06:29:00;99946.40;;;29.82;30.84
49801;BME280;35698;50.232;30.540;2022-09-21T06:30:05;99951.31;;;29.98;31.03
49801;BME280;35698;50.232;30.540;2022-09-21T06:31:26;99939.70;;;30.34;31.57
49801;BME280;35698;50.232;30.540;2022-09-21T06:32:30;99946.56;;;29.56;29.71
49801;BME280;35698;50.232;30.540;2022-09-21T06:33:49;99945.24;;;30.28;30.59
49801;BME280;35698;50.232;30.540;2022-09-21T06:34:54;99939.96;;;30.33;31.57
49801;BME280;35698;50.232;30.540;2022-09-21T06:36:07;99948.14;;;30.51;30.98
49801;BME280;35698;50.232;30.540;2022-09-21T06:37:11;99942.98;;;30.43;31.16
49801;BME280;35698;50.232;30.540;2022-09-21T06:38:24;99947.05;;;30.34;30.75
49801;BME280;35698;50.232;30.540;2022-09-21T06:39:29;99950.93;;;30.45;31.33
49801;BME280;35698;50.232;30.540;2022-09-21T06:40:41;99953.38;;;30.53;30.79
49801;BME280;35698;50.232;30.540;2022-09-21T06:41:46;99951.48;;;30.53;30.90
49801;BME280;35698;50.232;30.540;2022-09-21T06:43:02;99951.77;;;30.70;30.91
49801;BME280;35698;50.232;30.540;2022-09-21T06:44:07;99948.11;;;30.58;31.10
49801;BME280;35698;50.232;30.540;2022-09-21T06:45:24;99948.67;;;30.85;31.37
49801;BME280;35698;50.232;30.540;2022-09-21T06:46:29;99950.34;;;30.86;31.24
49801;BME280;35698;50.232;30.540;2022-09-21T06:47:53;99945.48;;;31.06;31.18
49801;BME280;35698;50.232;30.540;2022-09-21T06:49:12;99956.50;;;31.18;31.70
49801;BME280;35698;50.232;30.540;2022-09-21T06:50:17;99958.22;;;31.12;31.11
49801;BME280;35698;50.232;30.540;2022-09-21T06:51:31;99960.78;;;31.25;30.91
49801;BME280;35698;50.232;30.540;2022-09-21T06:52:34;99961.86;;;31.06;30.95
49801;BME280;35698;50.232;30.540;2022-09-21T06:53:47;99962.22;;;30.48;30.04
49801;BME280;35698;50.232;30.540;2022-09-21T06:55:20;99952.97;;;29.30;30.38
49801;BME280;35698;50.232;30.540;2022-09-21T06:56:25;99952.84;;;29.56;30.88
49801;BME280;35698;50.232;30.540;2022-09-21T06:57:40;99961.07;;;29.81;30.55
49801;BME280;35698;50.232;30.540;2022-09-21T06:58:49;99956.83;;;29.54;30.15
49801;BME280;35698;50.232;30.540;2022-09-21T07:00:01;99955.23;;;29.78;31.04
49801;BME280;35698;50.232;30.540;2022-09-21T07:01:07;99967.64;;;30.05;31.79
49801;BME280;35698;50.232;30.540;2022-09-21T07:02:12;99962.42;;;30.28;31.52
49801;BME280;35698;50.232;30.540;2022-09-21T07:03:25;99962.83;;;30.50;30.31
49801;BME280;35698;50.232;30.540;2022-09-21T07:04:30;99957.22;;;30.45;30.72
49801;BME280;35698;50.232;30.540;2022-09-21T07:05:46;99964.63;;;30.63;30.60
49801;BME280;35698;50.232;30.540;2022-09-21T07:06:50;99960.72;;;30.52;30.24
49801;BME280;35698;50.232;30.540;2022-09-21T07:08:01;99962.06;;;30.68;30.61
49801;BME280;35698;50.232;30.540;2022-09-21T07:09:07;99971.36;;;30.60;30.49
49801;BME280;35698;50.232;30.540;2022-09-21T07:10:19;99973.87;;;30.62;30.11